Time;durP1;ratioP1;P1;durP2;ratioP2;P2;SDS_P1;SDS_P2;PMS_P1;PMS_P2;Temp;Humidity;BMP_temperature;BMP_pressure;BME280_temperature;BME280_humidity;BME280_pressure;Samples;Min_cycle;Max_cycle;Signal;HPM_P1;HPM_P2
2022/04/30 00:01:03;;;;;;;10.60;8.15;;;;;;;12.62;90.52;63302.00;5081681;28;20490;-76
2022/04/30 00:03:30;;;;;;;9.77;7.47;;;;;;;12.56;90.82;63295.78;5082607;28;20254;-75
2022/04/30 00:05:57;;;;;;;8.75;7.82;;;;;;;12.51;92.75;63285.50;5083516;28;20200;-76
2022/04/30 00:08:24;;;;;;;9.20;7.75;;;;;;;12.41;93.44;63280.22;5080967;28;20228;-76
2022/04/30 00:10:53;;;;;;;9.35;8.32;;;;;;;12.14;94.49;63249.69;5083077;28;20515;-76
2022/04/30 00:13:22;;;;;;;8.60;7.70;;;;;;;11.91;95.62;63223.31;5083029;28;20216;-76
2022/04/30 00:15:49;;;;;;;8.90;7.63;;;;;;;11.87;96.04;63224.78;5081318;28;20409;-77
2022/04/30 00:18:16;;;;;;;10.25;7.85;;;;;;;12.01;94.77;63236.22;5084224;28;20262;-77
2022/04/30 00:20:45;;;;;;;8.80;7.90;;;;;;;12.04;94.19;63239.84;5084983;28;20212;-77
2022/04/30 00:23:19;;;;;;;7.90;7.10;;;;;;;12.04;94.18;63239.84;5083424;28;20575;-76
2022/04/30 00:25:50;;;;;;;10.07;7.53;;;;;;;11.96;94.70;63236.16;5075887;28;20402;-76
2022/04/30 00:28:18;;;;;;;8.75;7.78;;;;;;;11.99;95.09;63234.16;5082182;28;20254;-76
2022/04/30 00:30:47;;;;;;;8.23;7.43;;;;;;;12.09;94.01;63244.50;5083643;28;20251;-76
2022/04/30 00:33:14;;;;;;;9.18;7.68;;;;;;;12.15;93.02;63248.69;5082216;28;20243;-76
2022/04/30 00:35:42;;;;;;;8.57;7.68;;;;;;;11.86;95.64;63215.56;5079949;28;20203;-76
2022/04/30 00:38:09;;;;;;;9.50;7.75;;;;;;;11.71;97.42;63203.09;5083512;28;20213;-77
2022/04/30 00:40:36;;;;;;;9.68;7.35;;;;;;;11.62;98.89;63196.81;5083626;28;20188;-76
2022/04/30 00:43:03;;;;;;;9.45;8.05;;;;;;;11.62;99.99;63199.38;5080769;28;20232;-76
2022/04/30 00:45:30;;;;;;;8.85;7.70;;;;;;;11.64;100.00;63200.94;5082184;28;20208;-76
2022/04/30 00:47:58;;;;;;;10.57;8.82;;;;;;;11.52;100.00;63188.50;5081611;28;20224;-76
2022/04/30 00:50:28;;;;;;;9.23;8.10;;;;;;;11.49;100.00;63180.28;5069544;28;20213;-77
2022/04/30 00:52:57;;;;;;;10.65;8.38;;;;;;;11.53;100.00;63189.53;5066778;28;20232;-77
2022/04/30 00:55:29;;;;;;;9.60;8.20;;;;;;;11.62;99.38;63199.38;5081806;28;20276;-76
2022/04/30 00:58:01;;;;;;;8.85;7.47;;;;;;;11.63;98.71;63202.94;5079878;28;20217;-76
2022/04/30 01:00:29;;;;;;;9.55;7.88;;;;;;;11.35;99.77;63165.78;5082327;28;20436;-76
2022/04/30 01:02:57;;;;;;;12.43;7.05;;;;;;;11.53;100.00;63187.50;5081558;28;20434;-76
2022/04/30 01:05:24;;;;;;;10.30;7.82;;;;;;;11.59;100.00;63195.75;5083362;28;20218;-76
2022/04/30 01:07:52;;;;;;;9.27;7.32;;;;;;;11.68;99.07;63202.53;5073341;28;20228;-77
2022/04/30 01:10:19;;;;;;;8.52;7.57;;;;;;;11.59;98.60;63195.75;5063211;28;20190;-76
2022/04/30 01:12:48;;;;;;;11.43;7.63;;;;;;;11.75;96.61;63209.81;5077231;28;20224;-76
2022/04/30 01:15:15;;;;;;;8.43;6.93;;;;;;;11.81;95.98;63216.00;5081905;28;20393;-76
2022/04/30 01:17:43;;;;;;;11.85;6.93;;;;;;;11.89;94.22;63224.28;5069670;28;20396;-76
2022/04/30 01:20:12;;;;;;;10.43;6.88;;;;;;;11.91;93.16;63223.31;5063487;28;20197;-76
2022/04/30 01:22:52;;;;;;;8.10;7.18;;;;;;;11.93;93.22;63225.88;5080485;28;20256;-76
2022/04/30 01:25:21;;;;;;;8.00;7.18;;;;;;;11.85;92.95;63220.16;5081424;28;20293;-76
2022/04/30 01:27:48;;;;;;;9.23;7.10;;;;;;;11.79;92.78;63213.41;5076590;28;20281;-76
2022/04/30 01:30:16;;;;;;;7.45;6.20;;;;;;;11.82;93.13;63217.03;5082207;28;20205;-76
2022/04/30 01:38:15;;;;;;;8.82;7.28;;;;;;;11.43;96.74;63177.13;5082434;28;20264;-76
2022/04/30 01:40:42;;;;;;;7.80;7.00;;;;;;;11.46;96.94;63179.72;5081846;28;20208;-77
2022/04/30 01:43:09;;;;;;;8.20;7.40;;;;;;;11.46;96.90;63179.72;5081403;28;20466;-76
2022/04/30 01:45:36;;;;;;;11.75;7.20;;;;;;;11.48;96.84;63184.34;5070350;28;20258;-76
2022/04/30 01:48:05;;;;;;;10.80;7.70;;;;;;;11.46;96.49;63179.72;5081740;28;20572;-76
2022/04/30 01:50:32;;;;;;;9.57;7.80;;;;;;;11.44;96.05;63180.72;5083317;28;20242;-77
2022/04/30 01:52:59;;;;;;;7.53;6.63;;;;;;;11.43;96.72;63177.13;5079199;28;20528;-77
2022/04/30 01:55:28;;;;;;;8.75;7.28;;;;;;;11.40;97.13;63171.50;5076542;28;20228;-76
2022/04/30 01:57:54;;;;;;;9.13;7.50;;;;;;;11.38;97.55;63174.00;5073536;28;20224;-76
2022/04/30 02:00:21;;;;;;;8.38;7.57;;;;;;;11.26;98.77;63157.00;5083458;28;20242;-76
2022/04/30 02:02:50;;;;;;;12.48;8.25;;;;;;;11.31;99.36;63166.75;5074763;28;20225;-76
2022/04/30 02:05:19;;;;;;;11.20;8.50;;;;;;;11.29;99.69;63162.63;5074884;28;20212;-76
2022/04/30 02:07:50;;;;;;;10.23;8.10;;;;;;;11.26;100.00;63162.09;5081266;28;20220;-76
2022/04/30 02:10:19;;;;;;;11.77;7.57;;;;;;;11.31;99.91;63166.75;5081643;28;20368;-76
2022/04/30 02:12:48;;;;;;;10.32;8.43;;;;;;;11.33;99.78;63166.78;5066433;28;20576;-75
2022/04/30 02:15:15;;;;;;;12.15;8.40;;;;;;;11.36;99.85;63169.38;5080949;28;20207;-76
2022/04/30 02:17:42;;;;;;;8.95;8.05;;;;;;;11.33;99.57;63163.72;5081302;28;20220;-76
2022/04/30 02:20:29;;;;;;;8.88;8.00;;;;;;;11.28;99.82;63159.06;5081829;28;20270;-76
2022/04/30 02:22:58;;;;;;;9.23;8.18;;;;;;;11.35;99.11;63170.88;5082911;28;20221;-76
2022/04/30 02:25:26;;;;;;;9.60;7.78;;;;;;;11.36;99.17;63167.34;5080754;28;20205;-76
2022/04/30 02:27:56;;;;;;;12.93;7.05;;;;;;;11.48;98.09;63184.88;5081239;28;20602;-75
2022/04/30 02:30:24;;;;;;;10.13;6.85;;;;;;;11.56;96.17;63192.66;5069860;28;20249;-76
2022/04/30 02:32:53;;;;;;;9.23;6.85;;;;;;;11.53;95.44;63189.53;5077922;28;20216;-75
2022/04/30 02:35:22;;;;;;;10.10;7.18;;;;;;;11.49;95.15;63183.34;5064948;28;20487;-76
2022/04/30 02:37:52;;;;;;;8.00;6.50;;;;;;;11.44;95.04;63178.16;5072784;28;20218;-76
2022/04/30 02:40:21;;;;;;;7.45;6.65;;;;;;;11.35;96.12;63163.75;5083469;28;20196;-77
2022/04/30 02:42:49;;;;;;;8.35;7.15;;;;;;;11.27;96.63;63162.59;5086777;28;20224;-75
2022/04/30 02:45:18;;;;;;;9.25;7.28;;;;;;;11.20;97.63;63150.25;5087821;28;20193;-76
2022/04/30 02:47:48;;;;;;;8.85;7.45;;;;;;;11.13;98.64;63146.06;5082905;28;20426;-76
2022/04/30 02:50:15;;;;;;;9.10;7.43;;;;;;;11.10;98.87;63142.44;5086320;28;20215;-76
2022/04/30 02:52:43;;;;;;;8.55;7.57;;;;;;;11.06;97.44;63138.81;5084780;28;20295;-75
2022/04/30 02:55:11;;;;;;;8.30;7.47;;;;;;;11.05;96.96;63139.81;5086390;28;20201;-76
2022/04/30 02:59:53;;;;;;;9.38;7.15;;;;;;;11.03;96.80;63133.16;5083433;28;20288;-77
2022/04/30 03:00:34;;;;;;;9.55;7.53;;;;;;;11.02;97.35;63134.69;5092384;28;20201;-76
2022/04/30 03:03:01;;;;;;;8.35;6.88;;;;;;;11.02;96.92;63134.69;5092288;28;20287;-76
2022/04/30 03:05:30;;;;;;;8.05;6.72;;;;;;;11.03;96.77;63135.72;5085802;28;20401;-76
2022/04/30 03:07:58;;;;;;;9.52;6.55;;;;;;;10.80;98.22;63104.28;5079786;28;20449;-76
2022/04/30 03:10:25;;;;;;;8.38;7.53;;;;;;;10.82;98.43;63113.97;5084733;28;20387;-76
2022/04/30 03:12:52;;;;;;;8.63;7.18;;;;;;;10.86;98.45;63118.09;5090691;28;20216;-75
2022/04/30 03:15:21;;;;;;;7.68;6.90;;;;;;;10.90;98.32;63119.19;5090064;28;20212;-76
2022/04/30 03:23:20;;;;;;;7.80;7.05;;;;;;;10.96;97.34;63128.47;5087882;28;20222;-76
2022/04/30 03:25:47;;;;;;;9.25;7.70;;;;;;;10.98;97.49;63133.09;5086530;28;20208;-76
2022/04/30 03:28:14;;;;;;;9.68;7.63;;;;;;;10.91;98.18;63128.38;5083636;28;20231;-76
2022/04/30 03:30:41;;;;;;;8.60;6.93;;;;;;;11.01;97.71;63133.63;5082893;28;20459;-76
2022/04/30 03:33:09;;;;;;;14.77;8.07;;;;;;;10.97;98.20;63128.97;5085838;28;20238;-76
2022/04/30 03:35:39;;;;;;;8.13;7.32;;;;;;;11.02;97.72;63134.69;5086910;28;20243;-76
2022/04/30 03:38:07;;;;;;;10.90;7.53;;;;;;;11.11;97.31;63143.97;5085068;28;20461;-76
2022/04/30 03:40:35;;;;;;;12.20;7.20;;;;;;;11.18;96.90;63148.19;5084236;28;20207;-77
2022/04/30 03:43:02;;;;;;;7.75;6.97;;;;;;;11.22;96.82;63154.88;5086746;28;20254;-77
2022/04/30 03:45:29;;;;;;;9.52;7.22;;;;;;;11.22;97.46;63154.88;5084983;28;20244;-75
2022/04/30 03:47:56;;;;;;;8.73;7.85;;;;;;;11.20;98.33;63150.25;5080126;28;20242;-75
2022/04/30 03:50:24;;;;;;;8.07;6.95;;;;;;;11.29;97.76;63164.66;5085222;28;20209;-76
2022/04/30 03:52:51;;;;;;;7.45;6.75;;;;;;;11.37;97.30;63170.41;5084555;28;20248;-76
2022/04/30 03:55:18;;;;;;;7.97;7.18;;;;;;;11.44;96.80;63180.22;5084613;28;20205;-75
2022/04/30 03:57:45;;;;;;;9.05;7.05;;;;;;;11.48;97.38;63179.78;5083757;28;20443;-75
2022/04/30 04:00:13;;;;;;;10.50;8.50;;;;;;;11.20;99.43;63152.81;5083965;28;20235;-76
2022/04/30 04:02:41;;;;;;;10.82;8.85;;;;;;;11.32;100.00;63167.78;5083776;28;20224;-76
2022/04/30 04:05:10;;;;;;;10.98;8.95;;;;;;;11.42;100.00;63178.13;5078659;28;20232;-76
2022/04/30 04:07:39;;;;;;;12.95;9.65;;;;;;;11.50;99.13;63183.88;5083181;28;20224;-76
2022/04/30 04:10:06;;;;;;;14.80;10.07;;;;;;;11.36;100.00;63169.88;5084211;28;20201;-75
2022/04/30 04:12:33;;;;;;;10.98;9.32;;;;;;;11.40;100.00;63171.50;5082255;28;20790;-76
2022/04/30 04:17:43;;;;;;;12.15;9.60;;;;;;;11.49;100.00;63182.84;5053172;28;20258;-76
2022/04/30 04:20:13;;;;;;;16.08;9.80;;;;;;;11.60;100.00;63194.75;5083832;28;20352;-76
2022/04/30 04:22:42;;;;;;;13.15;9.75;;;;;;;11.74;100.00;63205.69;5080372;28;20283;-76
2022/04/30 04:27:55;;;;;;;11.73;9.30;;;;;;;11.83;100.00;63215.00;5083347;28;20234;-77
2022/04/30 04:30:22;;;;;;;19.73;12.18;;;;;;;12.02;100.00;63240.31;5083362;28;20196;-76
2022/04/30 04:32:49;;;;;;;14.05;10.55;;;;;;;12.15;100.00;63255.84;5080145;28;20212;-77
2022/04/30 04:35:16;;;;;;;19.15;10.43;;;;;;;12.08;100.00;63246.03;5084089;28;20509;-76
2022/04/30 04:37:45;;;;;;;14.95;10.30;;;;;;;11.85;100.00;63220.16;5083978;28;20216;-76
2022/04/30 04:40:13;;;;;;;18.38;11.10;;;;;;;11.65;100.00;63198.91;5077911;28;20272;-76
2022/04/30 04:42:42;;;;;;;16.88;9.75;;;;;;;11.63;100.00;63197.84;5072364;28;20224;-77
2022/04/30 04:45:10;;;;;;;12.65;9.85;;;;;;;11.91;99.99;63223.31;5083478;28;20227;-76
2022/04/30 04:47:39;;;;;;;15.63;10.55;;;;;;;11.84;99.14;63226.75;5063293;28;20225;-76
2022/04/30 04:50:08;;;;;;;16.80;10.63;;;;;;;12.11;97.81;63247.09;5075081;28;20235;-76
2022/04/30 04:52:35;;;;;;;15.38;10.68;;;;;;;12.07;97.10;63245.50;5076456;28;20266;-76
2022/04/30 04:55:04;;;;;;;17.85;10.68;;;;;;;12.32;96.38;63268.84;5083195;28;20200;-76
2022/04/30 04:57:31;;;;;;;18.70;10.32;;;;;;;12.62;95.04;63296.88;5083208;28;20216;-76
2022/04/30 04:59:58;;;;;;;13.95;9.82;;;;;;;12.69;93.17;63309.25;5077910;28;20197;-75
2022/04/30 05:02:25;;;;;;;15.88;9.60;;;;;;;12.65;93.15;63303.06;5072879;28;20232;-76
2022/04/30 05:04:51;;;;;;;14.27;9.95;;;;;;;12.45;94.68;63279.78;5086064;28;20220;-76
2022/04/30 05:07:19;;;;;;;12.55;10.63;;;;;;;12.32;95.27;63273.97;5083728;28;20232;-76
2022/04/30 05:09:46;;;;;;;18.55;11.05;;;;;;;12.26;96.42;63262.66;5072079;28;20205;-76
2022/04/30 05:12:14;;;;;;;14.15;10.07;;;;;;;12.55;96.80;63297.28;5080723;28;20452;-76
2022/04/30 05:14:41;;;;;;;13.50;10.60;;;;;;;12.64;96.45;63304.06;5080427;28;20197;-76
2022/04/30 05:17:08;;;;;;;16.80;10.50;;;;;;;12.73;96.21;63310.84;5082918;28;20225;-76
2022/04/30 05:19:35;;;;;;;15.98;11.02;;;;;;;12.64;95.70;63302.03;5084949;28;20223;-76
2022/04/30 05:22:02;;;;;;;15.70;9.65;;;;;;;12.49;96.46;63286.47;5081746;28;20204;-76
2022/04/30 05:24:29;;;;;;;13.60;10.63;;;;;;;12.49;96.78;63288.53;5081919;28;20231;-77
2022/04/30 05:26:56;;;;;;;16.05;10.88;;;;;;;12.82;95.03;63315.09;5081510;28;20230;-75
2022/04/30 05:29:24;;;;;;;15.43;10.75;;;;;;;13.17;93.60;63355.97;5080702;28;20258;-75
2022/04/30 05:31:51;;;;;;;17.90;10.52;;;;;;;13.17;92.29;63361.09;5076967;28;20395;-77
2022/04/30 05:34:18;;;;;;;19.50;11.65;;;;;;;12.77;94.22;63315.00;5073886;28;20208;-76
2022/04/30 05:36:45;;;;;;;17.55;10.88;;;;;;;12.93;93.15;63331.59;5083331;28;20206;-76
2022/04/30 05:39:12;;;;;;;14.68;10.68;;;;;;;13.02;93.51;63340.94;5081560;28;20270;-79
2022/04/30 05:41:38;;;;;;;16.02;10.23;;;;;;;13.12;93.36;63351.31;5077345;28;20196;-77
2022/04/30 05:44:05;;;;;;;17.83;10.57;;;;;;;13.06;93.51;63347.66;5081931;28;20270;-76
2022/04/30 05:46:33;;;;;;;14.45;10.95;;;;;;;13.07;94.74;63343.06;5082727;28;20196;-75
2022/04/30 05:49:00;;;;;;;15.48;10.45;;;;;;;13.15;94.97;63354.44;5079883;28;20216;-76
2022/04/30 05:51:27;;;;;;;21.23;11.57;;;;;;;13.29;93.17;63368.44;5072630;28;20200;-77
2022/04/30 05:53:54;;;;;;;18.20;10.65;;;;;;;13.48;91.60;63388.16;5083202;28;20408;-76
2022/04/30 05:56:21;;;;;;;19.80;9.75;;;;;;;13.77;91.88;63418.75;5082618;28;20274;-76
2022/04/30 05:58:48;;;;;;;14.40;9.07;;;;;;;13.84;88.36;63425.50;5082211;28;20482;-77
2022/04/30 06:01:14;;;;;;;14.95;9.77;;;;;;;14.10;87.34;63449.44;5077192;28;20227;-77
2022/04/30 06:03:43;;;;;;;13.57;9.48;;;;;;;14.33;84.81;63476.41;5083112;28;20257;-76
2022/04/30 06:06:10;;;;;;;16.75;9.88;;;;;;;14.18;85.49;63465.41;5084398;28;20254;-76
2022/04/30 06:08:37;;;;;;;12.57;9.70;;;;;;;14.47;84.39;63490.41;5083047;28;20220;-76
2022/04/30 06:11:04;;;;;;;11.52;8.98;;;;;;;14.61;81.39;63507.53;5082940;28;20204;-77
2022/04/30 06:13:30;;;;;;;10.65;8.02;;;;;;;14.67;79.31;63511.72;5086327;28;20218;-77
2022/04/30 06:15:57;;;;;;;8.70;7.72;;;;;;;15.03;77.47;63549.13;5086672;28;20373;-76
2022/04/30 06:18:25;;;;;;;8.30;7.47;;;;;;;15.31;74.01;63575.13;5083139;28;20528;-76
2022/04/30 06:20:53;;;;;;;9.00;8.10;;;;;;;15.21;71.86;63566.78;5084098;28;20196;-77
2022/04/30 06:23:20;;;;;;;8.55;7.65;;;;;;;15.29;71.87;63575.59;5086786;28;20261;-76
2022/04/30 06:25:47;;;;;;;10.73;7.28;;;;;;;15.27;69.24;63568.41;5084802;28;20448;-76
2022/04/30 06:28:14;;;;;;;7.25;6.50;;;;;;;15.36;68.37;63582.88;5084957;28;20511;-77
2022/04/30 06:30:41;;;;;;;9.80;7.93;;;;;;;15.28;69.54;63579.72;5087020;28;20386;-76
2022/04/30 06:33:08;;;;;;;7.43;6.72;;;;;;;15.47;66.77;63594.34;5085514;28;20254;-77
2022/04/30 06:35:37;;;;;;;8.30;7.50;;;;;;;15.43;68.29;63592.75;5085014;28;20230;-78
2022/04/30 06:38:06;;;;;;;7.45;6.75;;;;;;;15.48;65.55;63597.44;5083156;28;20225;-76
2022/04/30 06:40:33;;;;;;;10.50;7.25;;;;;;;15.47;65.15;63596.38;5084036;28;20284;-77
2022/04/30 06:43:00;;;;;;;7.00;6.40;;;;;;;15.36;66.21;63582.88;5085366;28;20458;-77
2022/04/30 06:45:27;;;;;;;8.60;7.63;;;;;;;15.24;67.50;63570.41;5080510;28;20269;-79
2022/04/30 06:47:54;;;;;;;11.07;8.00;;;;;;;15.02;68.35;63545.50;5077100;28;20216;-77
2022/04/30 06:50:21;;;;;;;9.70;7.60;;;;;;;15.17;69.88;63562.63;5086935;28;20196;-77
2022/04/30 06:58:18;;;;;;;9.50;7.75;;;;;;;15.86;67.95;63634.34;5083637;28;20211;-77
2022/04/30 07:03:29;;;;;;;8.35;7.45;;;;;;;15.48;66.35;63597.44;5082465;28;20596;-77
2022/04/30 07:06:03;;;;;;;9.75;7.60;;;;;;;15.46;67.89;63592.78;5082343;28;20223;-77
2022/04/30 07:08:31;;;;;;;9.73;8.15;;;;;;;15.25;69.13;63571.47;5083574;28;20213;-78
2022/04/30 07:11:00;;;;;;;8.43;7.53;;;;;;;15.30;67.50;63578.69;5084017;28;20188;-77
2022/04/30 07:13:27;;;;;;;7.55;6.78;;;;;;;15.69;65.75;63616.69;5082651;28;20216;-78
2022/04/30 07:15:53;;;;;;;7.97;6.63;;;;;;;15.96;64.25;63645.28;5084686;28;20386;-76
2022/04/30 07:18:20;;;;;;;9.45;7.50;;;;;;;15.99;64.14;63650.44;5084119;28;20227;-77
2022/04/30 07:20:48;;;;;;;7.35;6.35;;;;;;;16.06;62.27;63655.69;5084439;28;20249;-75
2022/04/30 07:23:14;;;;;;;7.72;6.88;;;;;;;16.22;61.97;63669.25;5083279;28;20240;-76
2022/04/30 07:25:41;;;;;;;8.75;6.85;;;;;;;16.24;62.22;63671.31;5081969;28;20287;-76
2022/04/30 07:28:10;;;;;;;8.30;6.80;;;;;;;16.32;61.43;63686.81;5082005;28;20258;-77
2022/04/30 07:30:36;;;;;;;9.90;7.40;;;;;;;16.33;60.45;63682.72;5085520;28;20246;-78
2022/04/30 07:33:03;;;;;;;7.15;6.50;;;;;;;16.17;62.84;63666.59;5084925;28;20443;-78
2022/04/30 07:35:30;;;;;;;7.55;6.85;;;;;;;16.32;61.75;63682.22;5083971;28;20192;-78
2022/04/30 07:37:57;;;;;;;8.88;7.18;;;;;;;16.52;61.42;63703.03;5083368;28;20219;-77
2022/04/30 07:40:24;;;;;;;7.32;6.63;;;;;;;16.51;59.81;63699.41;5085162;28;20385;-77
2022/04/30 07:42:51;;;;;;;7.45;6.75;;;;;;;16.61;61.32;63709.81;5084860;28;20228;-78
2022/04/30 07:45:19;;;;;;;7.43;6.68;;;;;;;16.38;59.81;63687.91;5082990;28;20556;-76
2022/04/30 07:47:47;;;;;;;9.45;7.13;;;;;;;16.38;62.08;63687.91;5082829;28;20216;-77
2022/04/30 07:50:16;;;;;;;8.32;7.35;;;;;;;16.59;61.35;63710.31;5083197;28;20228;-76
2022/04/30 07:52:43;;;;;;;10.65;6.68;;;;;;;16.62;59.60;63716.00;5086369;28;20277;-79
2022/04/30 07:55:09;;;;;;;7.25;6.45;;;;;;;16.27;60.31;63671.88;5084617;28;20211;-78
2022/04/30 07:57:36;;;;;;;9.15;6.45;;;;;;;16.31;61.61;63681.16;5087660;28;20277;-78
2022/04/30 08:00:04;;;;;;;9.27;6.93;;;;;;;16.33;60.12;63683.25;5084123;28;20200;-78
2022/04/30 08:02:33;;;;;;;7.35;6.60;;;;;;;16.55;59.76;63703.06;5079494;28;20240;-77
2022/04/30 08:05:02;;;;;;;8.45;6.93;;;;;;;16.60;59.34;63713.41;5075407;28;20231;-78
2022/04/30 08:07:29;;;;;;;8.70;7.47;;;;;;;16.28;60.17;63678.03;5089771;28;20220;-78
2022/04/30 08:09:56;;;;;;;7.65;6.90;;;;;;;16.61;59.16;63711.88;5088326;28;20275;-78
2022/04/30 08:12:23;;;;;;;7.45;6.60;;;;;;;16.64;57.90;63709.84;5085738;28;20277;-78
2022/04/30 08:14:50;;;;;;;9.38;6.75;;;;;;;16.90;58.24;63742.56;5086361;28;20204;-78
2022/04/30 08:17:17;;;;;;;7.05;6.35;;;;;;;16.94;57.41;63746.75;5080781;28;20216;-77
2022/04/30 08:19:45;;;;;;;7.60;6.80;;;;;;;16.59;56.65;63709.78;5087474;28;20214;-78
2022/04/30 08:22:13;;;;;;;7.88;7.05;;;;;;;16.80;59.66;63736.78;5086479;28;20219;-78
2022/04/30 08:24:40;;;;;;;9.65;8.20;;;;;;;17.23;54.54;63776.91;5080082;28;20214;-77
2022/04/30 08:27:07;;;;;;;12.05;8.70;;;;;;;17.42;54.89;63798.75;5082733;28;20469;-78
2022/04/30 08:29:34;;;;;;;7.57;6.75;;;;;;;17.00;54.89;63755.03;5083269;28;20196;-78
2022/04/30 08:32:01;;;;;;;7.43;6.70;;;;;;;17.10;55.40;63762.88;5084752;28;20494;-79
2022/04/30 08:34:28;;;;;;;8.82;6.95;;;;;;;16.80;56.31;63737.31;5081540;28;22292;-78
2022/04/30 08:36:56;;;;;;;7.95;6.72;;;;;;;16.70;57.02;63721.75;5079176;28;20219;-77
2022/04/30 08:39:23;;;;;;;8.13;6.65;;;;;;;16.60;58.04;63710.84;5078085;28;20203;-78
2022/04/30 08:41:50;;;;;;;6.85;6.18;;;;;;;17.05;55.34;63760.25;5075143;28;20554;-78
2022/04/30 08:44:18;;;;;;;6.93;6.32;;;;;;;17.02;55.18;63755.06;5075280;28;20200;-77
2022/04/30 08:46:46;;;;;;;8.82;6.68;;;;;;;17.12;54.16;63768.03;5081547;28;20246;-78
2022/04/30 08:49:13;;;;;;;7.35;6.57;;;;;;;17.58;53.01;63817.47;5083955;28;20273;-78
2022/04/30 08:51:40;;;;;;;9.80;5.95;;;;;;;18.06;51.65;63862.31;5084433;28;20233;-78
2022/04/30 08:54:09;;;;;;;6.07;5.47;;;;;;;18.27;49.79;63884.19;5078837;28;20258;-79
2022/04/30 08:56:36;;;;;;;7.07;5.30;;;;;;;18.22;49.06;63884.66;5064242;28;20197;-77
2022/04/30 08:59:05;;;;;;;10.15;5.20;;;;;;;18.21;49.32;63877.94;5069509;28;20220;-79
2022/04/30 09:01:32;;;;;;;6.05;5.55;;;;;;;18.00;49.52;63856.59;5071788;28;20197;-78
2022/04/30 09:03:59;;;;;;;6.32;5.82;;;;;;;18.53;48.51;63910.78;5085664;28;20224;-78
2022/04/30 09:06:26;;;;;;;6.15;5.55;;;;;;;18.50;47.93;63910.25;5087048;28;20250;-77
2022/04/30 09:08:53;;;;;;;8.52;4.53;;;;;;;17.97;47.73;63852.94;5081686;28;20236;-78
2022/04/30 09:11:29;;;;;;;5.10;4.70;;;;;;;17.29;48.37;63785.72;5075664;28;20265;-77
2022/04/30 09:13:57;;;;;;;6.00;5.45;;;;;;;17.51;50.37;63805.56;5072934;28;20311;-76
2022/04/30 09:16:25;;;;;;;6.18;5.00;;;;;;;17.49;50.02;63803.47;5082002;28;20237;-77
2022/04/30 09:18:53;;;;;;;8.88;6.60;;;;;;;17.18;55.60;63773.75;5081546;28;20458;-77
2022/04/30 09:21:20;;;;;;;9.55;5.50;;;;;;;16.57;59.11;63710.78;5082838;28;20535;-78
2022/04/30 09:23:48;;;;;;;6.88;6.28;;;;;;;16.30;58.76;63680.13;5082014;28;20281;-76
2022/04/30 09:26:15;;;;;;;6.15;5.55;;;;;;;16.04;60.13;63653.09;5072191;28;20219;-75
2022/04/30 09:28:46;;;;;;;7.22;5.28;;;;;;;15.97;63.06;63640.66;5079977;28;20227;-74
2022/04/30 09:31:16;;;;;;;5.40;4.50;;;;;;;15.51;63.64;63601.06;5082457;28;20404;-76
2022/04/30 09:33:56;;;;;;;7.18;4.70;;;;;;;15.18;66.33;63564.19;5082752;28;20212;-76
2022/04/30 09:39:12;;;;;;;5.00;4.55;;;;;;;15.05;64.38;63550.66;5080765;28;20254;-76
2022/04/30 09:41:39;;;;;;;5.00;4.55;;;;;;;15.01;67.27;63549.59;5085876;28;20222;-79
2022/04/30 09:44:12;;;;;;;4.20;3.95;;;;;;;15.09;66.33;63559.97;5087447;28;20329;-79
2022/04/30 09:46:41;;;;;;;4.57;4.15;;;;;;;15.26;65.04;63571.97;5086876;28;20445;-78
2022/04/30 09:54:41;;;;;;;3.78;3.47;;;;;;;15.90;61.15;63641.63;5089537;28;20222;-78
2022/04/30 09:57:09;;;;;;;4.95;3.20;;;;;;;15.87;61.52;63635.94;5084663;28;20232;-79
2022/04/30 09:59:39;;;;;;;3.35;3.10;;;;;;;16.32;61.16;63681.69;5088233;28;20196;-76
2022/04/30 10:02:08;;;;;;;4.00;3.70;;;;;;;16.52;58.58;63705.59;5085864;28;20380;-79
2022/04/30 10:04:36;;;;;;;4.88;3.60;;;;;;;16.51;58.70;63702.00;5088127;28;20204;-77
2022/04/30 10:07:05;;;;;;;3.90;3.70;;;;;;;16.47;57.41;63697.81;5081886;28;20274;-77
2022/04/30 10:09:36;;;;;;;6.45;3.20;;;;;;;16.52;56.89;63705.06;5088834;28;20200;-79
2022/04/30 10:12:11;;;;;;;3.60;3.30;;;;;;;17.00;57.45;63752.97;5090489;28;20473;-79
2022/04/30 10:14:54;;;;;;;6.35;4.13;;;;;;;17.43;54.26;63794.63;5075307;28;20522;-78
2022/04/30 10:17:23;;;;;;;3.67;3.38;;;;;;;17.67;53.96;63822.22;5089357;28;20230;-80
2022/04/30 10:19:58;;;;;;;3.83;3.53;;;;;;;17.99;55.42;63855.56;5091521;28;20268;-79
2022/04/30 10:22:25;;;;;;;3.75;3.50;;;;;;;17.79;52.42;63831.63;5091864;28;20219;-79
2022/04/30 10:24:56;;;;;;;3.20;2.90;;;;;;;17.97;51.87;63858.63;5086439;28;20210;-79
2022/04/30 10:27:23;;;;;;;4.13;3.72;;;;;;;18.27;49.92;63889.34;5087535;28;20270;-77
2022/04/30 10:29:56;;;;;;;5.28;3.55;;;;;;;18.38;51.05;63893.59;5089216;28;20250;-79
2022/04/30 10:32:42;;;;;;;3.88;3.53;;;;;;;18.56;49.92;63913.91;5084426;28;20249;-78
2022/04/30 10:35:09;;;;;;;3.97;3.70;;;;;;;19.00;49.37;63957.19;5088842;28;20200;-79
2022/04/30 10:37:38;;;;;;;4.65;3.90;;;;;;;19.27;47.48;63993.09;5089153;28;20253;-78
2022/04/30 10:40:07;;;;;;;3.80;3.60;;;;;;;19.49;47.28;64010.88;5085625;28;20224;-80
2022/04/30 10:42:41;;;;;;;4.95;3.65;;;;;;;19.28;45.35;63988.97;5087482;28;20220;-78
2022/04/30 10:45:15;;;;;;;4.50;4.03;;;;;;;18.89;44.58;63948.84;5090484;28;20438;-79
2022/04/30 10:47:53;;;;;;;4.25;3.90;;;;;;;19.23;44.99;63984.28;5088071;28;20234;-79
2022/04/30 10:50:20;;;;;;;3.70;3.42;;;;;;;19.50;44.96;64012.44;5091189;28;20216;-79
2022/04/30 10:52:48;;;;;;;3.95;3.65;;;;;;;19.51;46.95;64018.66;5087266;28;20216;-77
2022/04/30 10:55:16;;;;;;;4.20;3.90;;;;;;;19.56;47.00;64018.19;5085717;28;20220;-78
2022/04/30 10:57:43;;;;;;;4.03;3.80;;;;;;;19.44;46.58;64008.78;5082523;28;20321;-78
2022/04/30 11:00:13;;;;;;;4.28;3.88;;;;;;;19.07;46.32;63970.16;5084947;28;20272;-77
2022/04/30 11:02:40;;;;;;;6.07;4.07;;;;;;;18.91;46.71;63950.41;5088795;28;20395;-76
2022/04/30 11:05:18;;;;;;;4.88;4.38;;;;;;;18.38;47.40;63895.66;5085288;28;20265;-77
2022/04/30 11:07:47;;;;;;;4.70;4.38;;;;;;;18.38;49.07;63896.19;5075759;28;20248;-77
2022/04/30 11:10:14;;;;;;;5.65;4.45;;;;;;;18.37;47.78;63895.16;5084112;28;20211;-78
2022/04/30 11:12:41;;;;;;;7.47;4.07;;;;;;;18.18;47.11;63877.41;5065983;28;20216;-77
2022/04/30 11:15:09;;;;;;;4.00;3.80;;;;;;;18.09;49.25;63862.88;5065533;28;20234;-76
2022/04/30 11:17:44;;;;;;;8.65;3.92;;;;;;;18.40;50.40;63900.34;5073029;28;20228;-76
2022/04/30 11:20:20;;;;;;;4.15;3.33;;;;;;;18.13;48.26;63875.28;5081013;28;20199;-77
2022/04/30 11:22:52;;;;;;;15.77;7.10;;;;;;;17.41;49.99;63792.03;5086103;28;20246;-78
2022/04/30 11:25:19;;;;;;;8.35;6.32;;;;;;;17.43;50.29;63799.28;5083169;28;20261;-77
2022/04/30 11:27:46;;;;;;;4.72;4.18;;;;;;;17.61;50.07;63815.44;5081728;28;20556;-77
2022/04/30 11:30:15;;;;;;;24.67;6.45;;;;;;;17.18;49.89;63769.16;5085631;28;20200;-78
2022/04/30 11:32:48;;;;;;;18.95;5.57;;;;;;;16.72;52.13;63728.97;5078769;28;20599;-78
2022/04/30 11:35:17;;;;;;;3.15;2.95;;;;;;;16.47;51.73;63697.31;5074581;28;20204;-78
2022/04/30 11:37:44;;;;;;;5.72;3.85;;;;;;;16.29;52.81;63679.06;5085481;28;20576;-80
2022/04/30 11:40:12;;;;;;;6.35;4.22;;;;;;;16.41;52.63;63686.41;5067739;28;20200;-79
2022/04/30 11:42:39;;;;;;;3.78;3.47;;;;;;;16.40;53.05;63692.56;5064627;28;20225;-77
2022/04/30 11:45:07;;;;;;;5.38;3.33;;;;;;;16.51;52.84;63704.56;5079091;28;20212;-77
2022/04/30 11:47:34;;;;;;;8.05;3.40;;;;;;;16.41;53.42;63688.97;5084931;28;20235;-78
2022/04/30 11:50:10;;;;;;;3.45;2.95;;;;;;;16.33;53.88;63680.66;5085459;28;20211;-77
2022/04/30 11:52:37;;;;;;;3.00;2.80;;;;;;;16.08;54.11;63657.75;5082990;28;20261;-77
2022/04/30 11:55:06;;;;;;;9.20;3.55;;;;;;;16.35;54.60;63684.78;5078675;28;20492;-77
2022/04/30 11:57:34;;;;;;;5.68;3.38;;;;;;;16.40;54.91;63693.09;5085027;28;20289;-76
2022/04/30 12:00:01;;;;;;;4.55;3.67;;;;;;;16.53;55.91;63706.63;5084920;28;20192;-77
2022/04/30 12:02:29;;;;;;;3.63;3.28;;;;;;;16.65;55.55;63716.03;5080188;28;20223;-77
2022/04/30 12:05:02;;;;;;;5.40;3.67;;;;;;;17.02;54.24;63754.53;5085332;28;20258;-77
2022/04/30 12:07:37;;;;;;;4.22;3.83;;;;;;;17.21;60.23;63771.72;5083535;28;20267;-76